Time;durP1;ratioP1;P1;durP2;ratioP2;P2;SDS_P1;SDS_P2;PMS_P1;PMS_P2;Temp;Humidity;BMP_temperature;BMP_pressure;BME280_temperature;BME280_humidity;BME280_pressure;Samples;Min_cycle;Max_cycle;Signal;HPM_P1;HPM_P2
2021/12/01 00:00:53;;;;;;;;;;;;;;;-2.21;99.44;97858.11;1760497;81;21025;-79
2021/12/01 00:03:21;;;;;;;5.12;2.75;;;;;;;-2.18;99.46;97868.27;1759429;80;20165;-80
2021/12/01 00:05:50;;;;;;;2.87;1.30;;;;;;;-2.15;99.59;97866.90;1761133;80;21050;-79
2021/12/01 00:08:17;;;;;;;3.52;1.40;;;;;;;-2.13;99.54;97868.98;1754703;80;20968;-79
2021/12/01 00:13:34;;;;;;;1.72;1.15;;;;;;;-2.14;99.46;97877.52;1710570;81;21892;-79
2021/12/01 00:16:02;;;;;;;4.27;1.50;;;;;;;-2.15;99.31;97877.13;1683034;83;21093;-77
2021/12/01 00:18:29;;;;;;;1.32;0.90;;;;;;;-2.20;99.21;97866.17;1679572;82;22182;-78
2021/12/01 00:20:57;;;;;;;2.35;1.02;;;;;;;-2.20;99.19;97859.78;1679080;83;21053;-78
2021/12/01 00:23:24;;;;;;;2.45;1.12;;;;;;;-2.20;99.26;97871.28;1655177;84;21112;-78
2021/12/01 00:25:52;;;;;;;3.87;2.10;;;;;;;-2.18;99.28;97865.70;1629190;86;28344;-78
2021/12/01 00:28:19;;;;;;;5.10;2.87;;;;;;;-2.20;99.18;97875.13;1680795;82;21010;-78
2021/12/01 00:30:46;;;;;;;;;;;;;;;-2.23;99.11;97872.65;1681185;83;21190;-78
2021/12/01 00:33:17;;;;;;;2.87;1.52;;;;;;;-2.27;99.02;97873.59;1680324;84;20183;-78
2021/12/01 00:35:45;;;;;;;3.37;1.82;;;;;;;-2.30;99.02;97876.22;1649956;84;21039;-78
2021/12/01 00:38:12;;;;;;;;;;;;;;;-2.35;98.94;97875.49;1681672;84;21657;-77
2021/12/01 00:40:39;;;;;;;3.05;1.30;;;;;;;-2.38;98.95;97884.11;1683658;83;20247;-78
2021/12/01 00:43:07;;;;;;;2.12;1.70;;;;;;;-2.38;99.08;97894.74;1684139;83;21101;-77
2021/12/01 00:45:33;;;;;;;2.45;1.10;;;;;;;-2.35;99.16;97895.94;1681386;84;26942;-77
2021/12/01 00:48:00;;;;;;;1.97;1.47;;;;;;;-2.33;99.20;97887.80;1682213;84;21575;-78
2021/12/01 00:50:32;;;;;;;4.30;2.08;;;;;;;-2.35;99.03;97890.83;1681777;84;21775;-78
2021/12/01 00:53:05;;;;;;;2.90;1.92;;;;;;;-2.38;98.89;97893.46;1682570;83;21100;-77
2021/12/01 00:55:33;;;;;;;3.30;1.77;;;;;;;-2.34;99.03;97898.92;1651804;85;21925;-77
2021/12/01 00:58:01;;;;;;;2.77;1.60;;;;;;;-2.34;98.91;97900.20;1684392;84;21111;-77
2021/12/01 01:00:31;;;;;;;2.85;1.30;;;;;;;-2.35;98.91;97907.03;1651186;84;21137;-77
2021/12/01 01:02:59;;;;;;;3.47;1.27;;;;;;;-2.37;98.70;97910.50;1627725;85;21712;-77
2021/12/01 01:05:27;;;;;;;2.92;1.50;;;;;;;-2.46;98.54;97916.67;1672064;82;20967;-76
2021/12/01 01:07:54;;;;;;;4.30;1.95;;;;;;;-2.54;98.36;97918.13;1654081;85;21154;-77
2021/12/01 01:18:34;;;;;;;6.12;2.52;;;;;;;-3.12;97.62;97938.57;1700303;83;22441;-77
2021/12/01 01:21:02;;;;;;;5.03;1.90;;;;;;;-3.30;97.50;97932.14;1702714;83;21167;-77
2021/12/01 01:23:29;;;;;;;5.83;2.50;;;;;;;-3.44;97.46;97945.17;1668256;84;21799;-77
2021/12/01 01:25:58;;;;;;;2.98;2.15;;;;;;;-3.58;97.45;97952.26;1623214;87;26590;-77
2021/12/01 01:28:25;;;;;;;7.42;3.20;;;;;;;-3.67;97.61;97952.41;1656309;85;20992;-77
2021/12/01 01:31:01;;;;;;;4.55;3.20;;;;;;;-3.75;97.82;97954.25;1700891;82;21551;-77
2021/12/01 01:33:29;;;;;;;5.47;2.42;;;;;;;-3.79;98.07;97955.20;1701004;82;22515;-76
2021/12/01 01:35:57;;;;;;;6.42;2.42;;;;;;;-3.86;98.23;97954.03;1677859;84;21123;-76
2021/12/01 01:38:24;;;;;;;4.15;1.90;;;;;;;-3.90;98.32;97949.84;1699552;82;21040;-75
2021/12/01 01:40:51;;;;;;;8.65;5.65;;;;;;;-3.97;98.26;97948.28;1701880;83;21649;-75
2021/12/01 01:43:18;;;;;;;7.65;5.35;;;;;;;-4.03;98.22;97952.63;1700431;82;21025;-76
2021/12/01 01:45:45;;;;;;;8.50;3.05;;;;;;;-4.09;98.26;97952.30;1700953;83;21120;-76
2021/12/01 01:48:14;;;;;;;4.70;3.43;;;;;;;-4.14;98.28;97946.46;1665037;84;21107;-76
2021/12/01 01:50:43;;;;;;;4.35;2.00;;;;;;;-4.19;98.21;97950.79;1668517;84;21090;-76
2021/12/01 01:53:17;;;;;;;2.75;1.72;;;;;;;-4.20;98.31;97956.73;1654873;85;21059;-75
2021/12/01 01:55:47;;;;;;;2.83;1.77;;;;;;;-4.24;98.26;97950.02;1652922;85;21096;-75
2021/12/01 01:58:15;;;;;;;9.48;7.83;;;;;;;-4.25;98.17;97952.17;1654568;85;21083;-75
2021/12/01 02:01:05;;;;;;;5.70;5.12;;;;;;;-4.28;98.13;97955.17;1651144;86;20938;-75
2021/12/01 02:03:23;;;;;;;6.62;6.00;;;;;;;-4.21;98.35;97955.06;1648193;86;22384;-75
2021/12/01 02:05:52;;;;;;;3.87;1.90;;;;;;;-4.15;98.40;97957.06;1653191;85;21214;-75
2021/12/01 02:08:20;;;;;;;2.60;1.85;;;;;;;-4.13;98.33;97948.97;1653151;85;21039;-75
2021/12/01 02:10:51;;;;;;;3.45;1.62;;;;;;;-4.15;98.17;97962.60;1651956;85;21113;-75
2021/12/01 02:13:20;;;;;;;4.60;3.12;;;;;;;-4.20;98.00;97963.11;1671815;84;21075;-75
2021/12/01 02:15:53;;;;;;;5.40;3.02;;;;;;;-4.25;97.85;97975.94;1682003;84;21686;-75
2021/12/01 02:18:21;;;;;;;4.35;1.60;;;;;;;-4.34;97.70;97974.38;1681071;84;20981;-75
2021/12/01 02:21:14;;;;;;;3.37;1.50;;;;;;;-4.41;97.66;97971.51;1679158;84;21078;-75
2021/12/01 02:23:51;;;;;;;2.85;1.50;;;;;;;-4.50;97.59;97984.39;1656500;84;21095;-76
2021/12/01 02:26:23;;;;;;;4.42;1.95;;;;;;;-4.54;97.62;97989.11;1679312;83;21045;-76
2021/12/01 02:28:53;;;;;;;5.67;1.50;;;;;;;-4.60;97.61;97995.56;1666254;83;21188;-76
2021/12/01 02:31:28;;;;;;;5.37;3.20;;;;;;;-4.66;97.62;97995.66;1678261;83;21600;-75
2021/12/01 02:33:53;;;;;;;2.75;1.52;;;;;;;-4.74;97.59;97996.59;1680409;83;21073;-75
2021/12/01 02:36:21;;;;;;;4.17;2.00;;;;;;;-4.85;97.49;97993.34;1681438;83;21120;-76
2021/12/01 02:38:50;;;;;;;19.42;17.65;;;;;;;-4.94;97.46;97985.84;1661451;84;20965;-76
2021/12/01 02:41:27;;;;;;;3.30;2.00;;;;;;;-5.00;97.53;97996.11;1682538;83;20993;-77
2021/12/01 02:43:54;;;;;;;2.77;1.60;;;;;;;-5.04;97.56;98002.08;1681294;83;21768;-76
2021/12/01 02:46:22;;;;;;;4.15;1.82;;;;;;;-5.11;97.50;98003.03;1654415;85;21292;-76
2021/12/01 02:48:49;;;;;;;;;;;;;;;-5.20;97.44;97998.46;1683329;84;21118;-75
2021/12/01 02:51:19;;;;;;;5.05;2.10;;;;;;;-5.28;97.40;98004.07;1682809;83;20420;-74
2021/12/01 02:53:46;;;;;;;3.65;1.57;;;;;;;-5.36;97.32;97997.39;1679913;84;21610;-75
2021/12/01 02:56:15;;;;;;;3.65;1.72;;;;;;;-5.42;97.37;97995.75;1678340;83;21173;-75
2021/12/01 02:58:44;;;;;;;4.95;1.95;;;;;;;-5.46;97.41;98000.44;1680699;83;21153;-75
2021/12/01 03:01:16;;;;;;;5.50;2.70;;;;;;;-5.52;97.45;97999.25;1681034;83;21607;-75
2021/12/01 03:03:44;;;;;;;4.10;2.12;;;;;;;-5.57;97.45;98001.86;1674947;84;22248;-75
2021/12/01 03:06:16;;;;;;;;;;;;;;;-5.62;97.45;97999.34;1684577;83;21118;-75
2021/12/01 03:08:42;;;;;;;9.70;2.87;;;;;;;-5.67;97.47;97988.37;1649594;84;20146;-75
2021/12/01 03:11:10;;;;;;;5.78;2.60;;;;;;;-5.69;97.55;97994.33;1680884;84;22053;-75
2021/12/01 03:13:36;;;;;;;3.45;2.40;;;;;;;-5.72;97.58;97999.45;1674589;84;21893;-75
2021/12/01 03:16:03;;;;;;;4.72;2.65;;;;;;;-5.75;97.56;98000.32;1664864;85;21098;-75
2021/12/01 03:21:08;;;;;;;3.55;2.00;;;;;;;-5.80;97.43;97996.97;1807235;77;22103;-73
2021/12/01 03:23:35;;;;;;;6.72;2.67;;;;;;;-5.89;97.34;97991.98;1819628;77;21067;-74
2021/12/01 03:26:01;;;;;;;4.42;2.98;;;;;;;-5.92;97.28;97994.56;1807010;78;21262;-74
2021/12/01 03:28:28;;;;;;;6.78;2.55;;;;;;;-5.98;97.23;97999.30;1815945;77;21711;-75
2021/12/01 03:30:55;;;;;;;5.80;2.40;;;;;;;-6.04;97.19;98001.06;1822045;77;21497;-74
2021/12/01 03:33:24;;;;;;;3.45;2.30;;;;;;;-6.13;97.08;97996.47;1825071;78;21525;-74
2021/12/01 03:35:52;;;;;;;4.37;2.40;;;;;;;-6.23;96.98;98010.09;1819689;78;21063;-74
2021/12/01 03:38:25;;;;;;;6.15;2.75;;;;;;;-6.30;96.98;98008.47;1811958;77;21111;-74
2021/12/01 03:40:52;;;;;;;6.25;2.87;;;;;;;-6.32;97.12;98005.09;1818984;77;21048;-74
2021/12/01 03:43:19;;;;;;;8.80;3.12;;;;;;;-6.35;97.17;97997.50;1749608;80;21033;-75
2021/12/01 03:45:46;;;;;;;5.65;2.75;;;;;;;-6.41;97.01;98001.32;1761181;80;21453;-74
2021/12/01 03:48:12;;;;;;;7.00;3.20;;;;;;;-6.48;96.91;98000.97;1774101;80;21180;-75
2021/12/01 03:50:41;;;;;;;6.60;2.65;;;;;;;-6.56;96.83;98003.55;1779307;79;21049;-75
2021/12/01 03:53:08;;;;;;;5.47;2.05;;;;;;;-6.67;96.70;97998.53;1778953;78;21215;-74
2021/12/01 03:55:36;;;;;;;3.15;2.08;;;;;;;-6.83;96.44;98004.58;1779412;78;20912;-74
2021/12/01 03:58:04;;;;;;;4.53;2.25;;;;;;;-6.98;96.21;98013.09;1749307;80;20942;-73
2021/12/01 04:00:31;;;;;;;3.75;2.15;;;;;;;-7.10;96.18;98015.26;1776587;78;20985;-74
2021/12/01 04:02:58;;;;;;;3.15;2.20;;;;;;;-7.17;96.23;98009.78;1771709;80;21716;-74
2021/12/01 04:05:25;;;;;;;5.47;1.95;;;;;;;-7.24;96.18;98004.33;1777172;80;21880;-74
2021/12/01 04:07:52;;;;;;;5.15;2.75;;;;;;;-7.33;96.11;98003.10;1774751;78;27548;-74
2021/12/01 04:10:21;;;;;;;4.47;2.62;;;;;;;-7.43;96.03;98008.19;1776579;80;21069;-74
2021/12/01 04:12:48;;;;;;;5.28;3.12;;;;;;;-7.50;96.03;98004.00;1779590;80;21549;-74
2021/12/01 04:15:15;;;;;;;;;;;;;;;-7.54;96.18;97999.77;1787723;78;21755;-75
2021/12/01 04:17:43;;;;;;;4.03;2.72;;;;;;;-7.55;96.26;97996.82;1774126;80;20211;-75
2021/12/01 04:20:13;;;;;;;5.72;2.42;;;;;;;-7.54;96.46;97989.63;1747847;80;21045;-74
2021/12/01 04:22:41;;;;;;;3.62;2.37;;;;;;;-7.53;96.54;97998.09;1751749;81;21002;-74
2021/12/01 04:25:09;;;;;;;6.50;3.20;;;;;;;-7.55;96.52;97998.09;1748053;80;21068;-75
2021/12/01 04:27:37;;;;;;;5.30;2.70;;;;;;;-7.58;96.49;97993.03;1742726;80;21749;-75
2021/12/01 04:30:08;;;;;;;5.00;2.65;;;;;;;-7.61;96.44;97990.51;1758460;81;21021;-73
2021/12/01 04:32:35;;;;;;;7.42;3.58;;;;;;;-7.66;96.37;97987.14;1727568;81;21078;-75
2021/12/01 04:35:05;;;;;;;4.72;3.02;;;;;;;-7.74;96.16;97983.77;1759980;80;21061;-73
2021/12/01 04:37:31;;;;;;;4.05;2.60;;;;;;;-7.85;95.92;97985.48;1759986;80;20962;-75
2021/12/01 04:39:58;;;;;;;5.17;2.90;;;;;;;-7.95;95.80;97972.84;1725558;81;21069;-74
2021/12/01 04:42:25;;;;;;;4.47;3.15;;;;;;;-8.01;95.78;97985.52;1761439;79;21367;-74
2021/12/01 04:44:51;;;;;;;6.33;3.65;;;;;;;-8.05;95.87;97986.78;1760637;80;21189;-74
2021/12/01 04:47:26;;;;;;;6.60;3.98;;;;;;;-8.06;96.03;97979.61;1762864;80;21005;-73
2021/12/01 04:49:47;;;;;;;5.10;3.20;;;;;;;-8.03;96.26;97977.08;1754307;80;21586;-74
2021/12/01 04:52:14;;;;;;;6.83;3.70;;;;;;;-8.02;96.40;97968.63;1757063;81;22220;-74
2021/12/01 04:54:41;;;;;;;8.38;3.67;;;;;;;-8.02;96.41;97963.55;1761661;79;21655;-74
2021/12/01 04:57:08;;;;;;;7.55;3.83;;;;;;;-8.03;96.36;97969.48;1761440;79;22347;-74
2021/12/01 04:59:37;;;;;;;7.92;3.92;;;;;;;-8.03;96.41;97962.31;1755712;81;21591;-74
2021/12/01 05:02:05;;;;;;;7.35;3.70;;;;;;;-8.02;96.45;97958.48;1758953;79;21061;-75
2021/12/01 05:04:33;;;;;;;9.30;4.37;;;;;;;-8.04;96.38;97962.70;1760236;79;21060;-74
2021/12/01 05:06:59;;;;;;;;;;;;;;;-8.08;96.27;97961.03;1745183;81;21028;-74
2021/12/01 05:09:26;;;;;;;12.90;6.70;;;;;;;-8.08;96.28;97955.97;1771780;79;20155;-74
2021/12/01 05:11:52;;;;;;;13.38;8.35;;;;;;;-8.06;96.34;97951.76;1741187;80;21029;-74
2021/12/01 05:14:20;;;;;;;13.47;6.97;;;;;;;-8.12;96.16;97946.70;1749681;80;21047;-74
2021/12/01 05:16:46;;;;;;;;;;;;;;;-8.30;95.73;97939.95;1763121;80;21659;-74
2021/12/01 05:19:13;;;;;;;8.95;5.35;;;;;;;-8.43;95.41;97946.77;1756786;80;20078;-74
2021/12/01 05:21:42;;;;;;;12.33;5.92;;;;;;;-8.53;95.35;97949.28;1759190;79;21097;-74
2021/12/01 05:24:09;;;;;;;10.90;5.55;;;;;;;-8.58;95.54;97948.01;1754869;81;21705;-74
2021/12/01 05:26:36;;;;;;;10.78;6.15;;;;;;;-8.62;95.52;97951.39;1756250;81;21646;-74
2021/12/01 05:29:05;;;;;;;9.35;5.85;;;;;;;-8.66;95.49;97953.48;1758755;81;21121;-74
2021/12/01 05:31:32;;;;;;;9.78;5.30;;;;;;;-8.68;95.57;97948.83;1758933;81;21564;-74
2021/12/01 05:33:59;;;;;;;8.70;6.10;;;;;;;-8.65;95.72;97940.01;1747644;81;21591;-76
2021/12/01 05:36:26;;;;;;;10.53;5.05;;;;;;;-8.67;95.81;97951.80;1754300;81;21133;-75
2021/12/01 05:38:52;;;;;;;9.83;5.42;;;;;;;-8.67;95.80;97965.30;1756282;80;21195;-74
2021/12/01 05:41:19;;;;;;;11.35;4.75;;;;;;;-8.63;95.98;97967.40;1762185;81;21743;-74
2021/12/01 05:43:46;;;;;;;9.20;5.30;;;;;;;-8.57;96.22;97973.33;1760288;81;21017;-74
2021/12/01 05:46:14;;;;;;;9.35;4.95;;;;;;;-8.49;96.34;97974.58;1760101;79;20986;-74
2021/12/01 05:48:41;;;;;;;15.65;6.03;;;;;;;-8.44;96.40;97972.89;1761694;81;21049;-76
2021/12/01 05:51:08;;;;;;;30.85;10.08;;;;;;;-8.35;96.58;97975.39;1757128;80;23689;-77
2021/12/01 05:53:35;;;;;;;23.98;9.10;;;;;;;-8.28;96.59;97975.41;1755550;81;21057;-76
2021/12/01 05:56:03;;;;;;;19.05;6.90;;;;;;;-8.22;96.83;97968.64;1758142;80;21084;-76
2021/12/01 05:58:30;;;;;;;15.55;6.22;;;;;;;-8.11;96.92;97976.23;1749132;80;21007;-76
2021/12/01 06:00:57;;;;;;;19.65;6.08;;;;;;;-8.01;96.97;97986.79;1751801;80;21085;-76
2021/12/01 06:03:28;;;;;;;15.23;7.00;;;;;;;-7.91;97.06;97972.41;1711213;81;21590;-76
2021/12/01 06:05:56;;;;;;;21.07;8.93;;;;;;;-7.83;97.07;97973.67;1773814;80;21147;-76
2021/12/01 06:08:23;;;;;;;18.27;8.03;;;;;;;-7.78;97.02;97969.44;1740585;81;21008;-76
2021/12/01 06:10:54;;;;;;;;;;;;;;;-7.73;97.00;97963.91;1774862;80;21018;-77
2021/12/01 06:13:24;;;;;;;15.85;6.55;;;;;;;-7.70;96.93;97962.63;1743476;81;20116;-76
2021/12/01 06:15:52;;;;;;;14.87;7.08;;;;;;;-7.76;96.62;97960.13;1757050;81;21076;-76
2021/12/01 06:18:19;;;;;;;13.95;7.97;;;;;;;-7.84;96.31;97959.30;1760604;81;21063;-77
2021/12/01 06:20:47;;;;;;;18.12;7.80;;;;;;;-7.91;96.18;97949.18;1700320;82;25659;-76
2021/12/01 06:23:16;;;;;;;16.85;8.30;;;;;;;-7.96;96.09;97945.80;1727949;82;21877;-76
2021/12/01 06:25:43;;;;;;;14.70;8.58;;;;;;;-8.01;96.01;97947.53;1726560;81;21080;-76
2021/12/01 06:28:10;;;;;;;15.40;8.40;;;;;;;-8.03;96.00;97956.81;1717987;82;20981;-77
2021/12/01 06:30:40;;;;;;;12.73;6.75;;;;;;;-7.99;96.22;97945.81;1743618;80;21266;-75
2021/12/01 06:33:08;;;;;;;23.18;11.93;;;;;;;-7.91;96.41;97948.34;1713002;81;21090;-74
2021/12/01 06:35:35;;;;;;;9.55;5.47;;;;;;;-7.84;96.49;97947.89;1710284;82;20961;-76
2021/12/01 06:38:05;;;;;;;7.50;4.62;;;;;;;-7.71;96.79;97954.62;1727149;81;21577;-75
2021/12/01 06:40:32;;;;;;;8.48;4.97;;;;;;;-7.54;97.04;97947.80;1735695;81;21073;-75
2021/12/01 06:42:59;;;;;;;10.45;6.37;;;;;;;-7.41;97.11;97945.23;1734205;82;22445;-76
2021/12/01 06:45:26;;;;;;;;;;;;;;;-7.30;97.18;97944.77;1734939;82;21078;-74
2021/12/01 06:47:52;;;;;;;8.63;4.90;;;;;;;-7.18;97.21;97939.62;1737828;81;20170;-76
2021/12/01 06:50:20;;;;;;;13.83;6.45;;;;;;;-7.04;97.42;97941.66;1729303;81;21008;-78
2021/12/01 06:52:47;;;;;;;14.07;6.17;;;;;;;-6.88;97.53;97931.00;1726804;82;21176;-75
2021/12/01 06:55:15;;;;;;;18.10;9.35;;;;;;;-6.73;97.59;97928.78;1728921;81;21067;-75
2021/12/01 06:57:42;;;;;;;20.57;12.03;;;;;;;-6.59;97.66;97925.70;1729282;81;20951;-77
2021/12/01 07:00:12;;;;;;;;;;;;;;;-6.42;97.72;97924.73;1733690;81;21608;-76
2021/12/01 07:02:39;;;;;;;23.83;11.60;;;;;;;-6.31;97.59;97926.76;1731080;81;20849;-76
2021/12/01 07:05:09;;;;;;;18.52;11.97;;;;;;;-6.18;97.58;97919.88;1721398;81;21039;-75
2021/12/01 07:07:37;;;;;;;18.02;9.45;;;;;;;-6.06;97.62;97912.13;1728395;81;21164;-77
2021/12/01 07:10:05;;;;;;;;;;;;;;;-6.01;97.23;97920.99;1698726;82;21133;-77
2021/12/01 07:12:32;;;;;;;17.57;8.70;;;;;;;-5.94;97.11;97917.52;1715519;82;20266;-77
2021/12/01 07:15:00;;;;;;;13.60;7.33;;;;;;;-5.89;97.10;97928.45;1746206;81;21071;-77
2021/12/01 07:17:27;;;;;;;13.28;6.60;;;;;;;-5.74;97.36;97923.22;1724216;82;22628;-75
2021/12/01 07:19:54;;;;;;;11.80;7.45;;;;;;;-5.54;97.66;97917.06;1715923;81;21714;-74
2021/12/01 07:22:23;;;;;;;8.90;6.53;;;;;;;-5.31;98.01;97904.89;1752774;80;21029;-77
2021/12/01 07:24:50;;;;;;;17.17;9.80;;;;;;;-5.06;98.25;97907.11;1754084;80;21020;-76
2021/12/01 07:27:18;;;;;;;17.23;9.80;;;;;;;-4.81;98.46;97903.79;1748149;81;20973;-77
2021/12/01 07:32:22;;;;;;;16.70;9.05;;;;;;;-4.33;98.37;97887.31;1830058;75;22573;-75
2021/12/01 07:34:49;;;;;;;;;;;;;;;-4.19;98.22;97884.53;1821236;77;21058;-73
2021/12/01 07:37:18;;;;;;;10.80;5.30;;;;;;;-3.99;98.26;97892.65;1794623;78;24489;-75
2021/12/01 07:39:47;;;;;;;12.73;6.45;;;;;;;-3.77;98.21;97889.71;1816588;78;21020;-75
2021/12/01 07:42:15;;;;;;;11.03;5.45;;;;;;;-3.61;97.97;97892.38;1819879;76;21492;-75
2021/12/01 07:44:43;;;;;;;9.53;5.53;;;;;;;-3.46;97.90;97885.67;1813001;78;20996;-76
2021/12/01 07:47:11;;;;;;;;;;;;;;;-3.24;98.10;97873.75;1819075;78;21025;-77
2021/12/01 07:49:39;;;;;;;10.05;5.35;;;;;;;-3.15;97.75;97864.61;1806817;78;21099;-75
2021/12/01 07:52:09;;;;;;;10.68;5.65;;;;;;;-3.11;97.42;97868.75;1814241;78;21004;-75
2021/12/01 07:54:39;;;;;;;10.98;5.85;;;;;;;-3.06;97.39;97866.94;1814006;78;21694;-75
2021/12/01 07:57:09;;;;;;;12.50;5.12;;;;;;;-2.89;97.88;97865.73;1819875;78;21763;-74
2021/12/01 07:59:38;;;;;;;10.45;6.25;;;;;;;-2.72;98.10;97871.28;1817912;78;21074;-75
2021/12/01 08:02:05;;;;;;;8.90;4.97;;;;;;;-2.52;98.33;97858.02;1817925;78;22354;-75
2021/12/01 08:04:33;;;;;;;9.65;5.67;;;;;;;-2.40;98.14;97846.68;1822302;78;21591;-75
2021/12/01 08:07:01;;;;;;;11.78;6.17;;;;;;;-2.27;98.19;97846.74;1819386;78;21106;-74
2021/12/01 08:09:28;;;;;;;;;;;;;;;-2.10;98.42;97838.22;1816320;78;21502;-75
2021/12/01 08:13:40;;;;;;;15.30;9.68;;;;;;;-1.84;98.13;97831.55;1813360;77;22927;-73
2021/12/01 08:16:07;;;;;;;12.85;8.78;;;;;;;-1.86;97.80;97832.03;1808644;78;20949;-72
2021/12/01 08:18:36;;;;;;;12.90;7.30;;;;;;;-1.84;97.66;97823.88;1809865;77;20988;-74
2021/12/01 08:21:04;;;;;;;19.40;9.20;;;;;;;-1.85;97.42;97825.61;1814106;78;21093;-74
2021/12/01 08:23:31;;;;;;;20.10;12.53;;;;;;;-1.83;97.58;97826.83;1809030;78;20978;-73
2021/12/01 08:25:58;;;;;;;38.25;18.35;;;;;;;-1.75;97.89;97822.33;1813064;78;21066;-74
2021/12/01 08:28:25;;;;;;;30.40;17.52;;;;;;;-1.68;97.96;97817.45;1813271;78;21026;-75
2021/12/01 08:30:52;;;;;;;33.83;20.37;;;;;;;-1.63;97.98;97825.81;1814115;78;21123;-76
2021/12/01 08:33:19;;;;;;;35.70;21.68;;;;;;;-1.59;97.99;97817.18;1808714;78;20962;-75
2021/12/01 08:35:46;;;;;;;41.10;23.43;;;;;;;-1.59;97.93;97806.95;1814107;78;20927;-76
2021/12/01 08:38:13;;;;;;;38.60;20.67;;;;;;;-1.54;97.98;97819.63;1799381;78;22351;-76
2021/12/01 08:40:40;;;;;;;32.95;20.68;;;;;;;-1.46;98.03;97806.58;1777128;78;21089;-75
2021/12/01 08:43:07;;;;;;;46.10;23.77;;;;;;;-1.36;98.04;97803.70;1813295;78;21083;-78
2021/12/01 08:45:34;;;;;;;45.08;26.27;;;;;;;-1.36;98.04;97803.70;1815007;78;22095;-78
2021/12/01 08:48:08;;;;;;;84.58;51.63;;;;;;;-1.25;98.19;97799.54;1801902;78;21002;-79
2021/12/01 08:50:33;;;;;;;62.67;37.93;;;;;;;-1.17;98.18;97801.42;1810802;78;21878;-81
2021/12/01 08:53:01;;;;;;;35.28;18.23;;;;;;;-1.11;97.99;97789.32;1785382;78;21142;-79
2021/12/01 08:55:29;;;;;;;34.30;18.05;;;;;;;-0.99;98.26;97791.48;1810832;77;22418;-80
2021/12/01 08:57:56;;;;;;;106.52;63.05;;;;;;;-0.85;98.37;97794.44;1795002;78;20988;-81
2021/12/01 09:00:23;;;;;;;53.98;33.80;;;;;;;-0.71;98.41;97786.31;1808726;77;22261;-82
2021/12/01 09:02:53;;;;;;;35.83;23.45;;;;;;;-0.60;98.34;97780.38;1781926;78;20975;-83
2021/12/01 09:05:23;;;;;;;44.63;28.98;;;;;;;-0.52;98.09;97780.97;1805770;78;21517;-84
2021/12/01 09:07:49;;;;;;;;;;;;;;;-0.48;97.92;97779.12;1780647;78;20945;-82
2021/12/01 09:10:16;;;;;;;31.87;19.40;;;;;;;-0.43;97.91;97779.81;1785315;78;20615;-85
2021/12/01 09:12:53;;;;;;;24.57;15.53;;;;;;;-0.38;98.00;97771.53;1804498;78;22283;-85
2021/12/01 09:15:20;;;;;;;24.05;16.05;;;;;;;-0.42;97.58;97773.81;1786689;78;21075;-66
2021/12/01 09:17:47;;;;;;;23.60;15.72;;;;;;;-0.43;97.48;97770.84;1803881;78;21004;-67
2021/12/01 09:20:16;;;;;;;26.77;17.50;;;;;;;-0.48;97.27;97756.05;1807235;78;21065;-67
2021/12/01 09:22:45;;;;;;;24.85;15.13;;;;;;;-0.50;97.27;97750.16;1807249;78;21084;-71
2021/12/01 09:25:12;;;;;;;27.52;14.87;;;;;;;-0.50;97.32;97752.73;1804646;78;21009;-75
2021/12/01 09:27:40;;;;;;;24.18;15.08;;;;;;;-0.47;97.37;97750.89;1806475;78;21024;-80
2021/12/01 09:30:09;;;;;;;20.82;13.55;;;;;;;-0.42;97.42;97743.47;1802029;78;20974;-66
2021/12/01 09:32:37;;;;;;;28.87;16.90;;;;;;;-0.42;97.46;97745.61;1805610;78;21868;-66
2021/12/01 09:35:08;;;;;;;23.07;15.55;;;;;;;-0.39;97.45;97748.48;1809653;78;21070;-65
2021/12/01 09:37:35;;;;;;;27.17;17.95;;;;;;;-0.35;97.56;97740.64;1808688;78;21571;-66
2021/12/01 09:40:13;;;;;;;26.07;18.52;;;;;;;-0.27;97.79;97738.65;1805215;78;21732;-66
2021/12/01 09:42:52;;;;;;;31.77;20.20;;;;;;;-0.17;97.79;97735.75;1804641;77;21584;-65
2021/12/01 09:45:23;;;;;;;32.85;21.12;;;;;;;-0.13;97.67;97739.44;1797175;78;21127;-65
2021/12/01 09:49:42;;;;;;;36.03;21.15;;;;;;;-0.03;97.68;97727.11;1811331;77;22867;-66
2021/12/01 09:52:09;;;;;;;51.85;32.75;;;;;;;-0.06;97.62;97731.90;1809575;77;21706;-66
2021/12/01 09:54:38;;;;;;;76.53;45.23;;;;;;;-0.08;97.52;97720.05;1800429;78;21070;-67
2021/12/01 09:57:07;;;;;;;87.90;47.45;;;;;;;-0.10;97.49;97724.39;1812990;78;21626;-65
2021/12/01 09:59:34;;;;;;;99.30;53.20;;;;;;;-0.08;97.50;97720.05;1811022;78;21660;-66
2021/12/01 10:02:01;;;;;;;;;;;;;;;-0.03;97.53;97713.00;1821592;78;21008;-66
2021/12/01 10:04:29;;;;;;;111.80;52.90;;;;;;;0.03;97.63;97707.66;1806563;77;20158;-69
2021/12/01 10:07:19;;;;;;;126.05;52.25;;;;;;;0.06;97.68;97704.98;1811600;77;21072;-70
2021/12/01 10:09:57;;;;;;;123.42;50.98;;;;;;;0.11;97.70;97697.95;1806485;77;21571;-69
2021/12/01 10:12:21;;;;;;;136.15;59.13;;;;;;;0.11;97.59;97700.52;1810243;78;20992;-69
2021/12/01 10:14:51;;;;;;;73.87;38.35;;;;;;;0.14;97.59;97690.14;1821014;77;21692;-70
2021/12/01 10:17:35;;;;;;;44.20;29.07;;;;;;;0.10;97.40;97680.86;1785720;77;21014;-69
2021/12/01 10:20:18;;;;;;;28.55;17.55;;;;;;;0.07;97.40;97674.56;1814279;77;21156;-69
2021/12/01 10:23:15;;;;;;;29.52;18.23;;;;;;;0.08;97.55;97669.81;1810475;77;21561;-69
2021/12/01 10:25:44;;;;;;;22.00;15.25;;;;;;;0.11;97.67;97667.16;1813027;77;21685;-70
2021/12/01 10:28:16;;;;;;;21.37;12.98;;;;;;;0.19;97.94;97650.99;1809277;77;21083;-70
2021/12/01 10:30:45;;;;;;;22.75;13.10;;;;;;;0.19;97.70;97659.98;1800498;77;20997;-69
2021/12/01 10:33:16;;;;;;;18.67;13.03;;;;;;;0.20;97.84;97648.83;1811744;78;22324;-70
2021/12/01 10:35:44;;;;;;;21.17;13.50;;;;;;;0.24;97.83;97651.28;1805520;78;21476;-69
2021/12/01 10:38:13;;;;;;;;;;;;;;;0.27;97.76;97642.17;1815089;77;21019;-69
2021/12/01 10:40:40;;;;;;;25.72;17.10;;;;;;;0.24;97.50;97641.02;1809910;78;20156;-69
2021/12/01 10:45:43;;;;;;;21.90;14.90;;;;;;;0.20;97.72;97630.03;1861218;73;22796;-68
2021/12/01 10:48:23;;;;;;;31.33;16.07;;;;;;;0.13;97.74;97629.42;1833879;75;21140;-70
2021/12/01 10:50:51;;;;;;;24.98;15.38;;;;;;;0.09;97.71;97633.02;1832597;75;21843;-68
2021/12/01 10:53:23;;;;;;;23.83;16.10;;;;;;;0.09;97.77;97627.05;1840517;75;21579;-68
2021/12/01 10:55:58;;;;;;;21.33;15.32;;;;;;;0.06;97.70;97621.59;1835462;75;21010;-69
2021/12/01 10:58:41;;;;;;;23.47;15.45;;;;;;;-0.02;97.62;97614.63;1844231;75;21030;-69
2021/12/01 11:01:24;;;;;;;23.98;16.23;;;;;;;-0.07;97.78;97610.12;1837212;75;20997;-68
2021/12/01 11:03:51;;;;;;;21.42;16.15;;;;;;;-0.12;97.84;97603.03;1831221;75;21096;-68
2021/12/01 11:06:20;;;;;;;;;;;;;;;-0.18;97.94;97596.41;1853442;75;20967;-68
2021/12/01 11:08:57;;;;;;;28.92;19.07;;;;;;;-0.24;97.97;97585.94;1837997;75;20123;-68
2021/12/01 11:11:38;;;;;;;33.17;19.67;;;;;;;-0.29;97.97;97573.73;1834872;75;21132;-68
2021/12/01 11:14:16;;;;;;;32.00;22.55;;;;;;;-0.34;98.04;97570.50;1836727;75;21286;-68
2021/12/01 11:16:46;;;;;;;28.12;18.80;;;;;;;-0.38;98.13;97566.84;1842414;75;21133;-69
2021/12/01 11:19:14;;;;;;;31.00;20.43;;;;;;;-0.40;98.30;97557.91;1847957;75;20973;-68
2021/12/01 11:21:41;;;;;;;26.10;17.67;;;;;;;-0.42;98.35;97557.16;1841175;75;21698;-68
2021/12/01 11:24:13;;;;;;;25.12;17.37;;;;;;;-0.42;98.41;97547.33;1839805;75;20968;-68
2021/12/01 11:26:45;;;;;;;27.02;18.48;;;;;;;-0.43;98.58;97546.50;1838279;75;21118;-69
2021/12/01 11:29:13;;;;;;;25.57;18.10;;;;;;;-0.44;98.53;97538.88;1840679;75;21160;-69
2021/12/01 11:31:44;;;;;;;50.52;34.83;;;;;;;-0.44;98.66;97533.30;1840146;75;21029;-69
2021/12/01 11:34:15;;;;;;;20.88;15.63;;;;;;;-0.42;98.75;97528.96;1834643;75;21544;-70
2021/12/01 11:36:46;;;;;;;21.50;15.72;;;;;;;-0.40;98.82;97516.89;1838916;75;21724;-69
2021/12/01 11:39:22;;;;;;;21.30;13.98;;;;;;;-0.34;98.89;97498.70;1761063;78;21179;-69
2021/12/01 11:41:52;;;;;;;21.05;14.78;;;;;;;-0.31;98.90;97488.35;1793163;78;22948;-70
2021/12/01 11:44:20;;;;;;;18.90;13.70;;;;;;;-0.27;98.90;97474.50;1839418;77;20972;-70
2021/12/01 11:46:49;;;;;;;16.95;12.18;;;;;;;-0.24;98.87;97464.12;1839139;77;20908;-69
2021/12/01 11:51:49;;;;;;;19.25;13.05;;;;;;;-0.05;98.97;97458.27;1836768;75;22735;-70
2021/12/01 11:54:20;;;;;;;69.15;53.63;;;;;;;-0.04;98.97;97450.48;1770542;78;21702;-69
2021/12/01 11:57:04;;;;;;;439.78;296.63;;;;;;;0.06;98.99;97443.26;1817984;78;21328;-69
2021/12/01 11:59:39;;;;;;;441.50;269.52;;;;;;;0.14;99.04;97434.80;1812415;78;20961;-70
2021/12/01 12:02:17;;;;;;;373.95;245.10;;;;;;;0.23;99.00;97422.48;1779014;78;21032;-69
2021/12/01 12:04:52;;;;;;;293.50;205.55;;;;;;;0.29;98.89;97423.50;1810058;77;21008;-69